Time;durP1;ratioP1;P1;durP2;ratioP2;P2;SDS_P1;SDS_P2;PMS_P1;PMS_P2;Temp;Humidity;BMP_temperature;BMP_pressure;BME280_temperature;BME280_humidity;BME280_pressure;Samples;Min_cycle;Max_cycle;Signal;HPM_P1;HPM_P2
2024/04/08 00:00:40;;;;;;;33.30;4.10;;;;;;;24.11;17.62;94543.53;5050609;28;20060;-46
2024/04/08 00:03:05;;;;;;;23.77;4.07;;;;;;;24.15;20.61;94541.09;5062450;28;20119;-44
2024/04/08 00:05:31;;;;;;;36.15;5.35;;;;;;;23.98;22.11;94542.31;5056728;28;20032;-46
2024/04/08 00:07:56;;;;;;;31.92;4.53;;;;;;;24.09;20.31;94540.34;5067941;28;20048;-46
2024/04/08 00:10:21;;;;;;;24.08;4.18;;;;;;;24.17;20.52;94544.28;5068773;28;20040;-44
2024/04/08 00:12:47;;;;;;;23.75;4.25;;;;;;;24.29;18.46;94541.25;5065454;28;20047;-44
2024/04/08 00:15:14;;;;;;;27.08;4.32;;;;;;;24.44;19.22;94556.25;5052136;28;20028;-44
2024/04/08 00:17:43;;;;;;;22.70;3.70;;;;;;;24.47;18.39;94553.84;5069626;28;20078;-46
2024/04/08 00:20:10;;;;;;;29.27;3.73;;;;;;;24.42;20.72;94569.81;5083481;28;20481;-44
2024/04/08 00:22:36;;;;;;;30.23;3.50;;;;;;;24.46;19.54;94562.06;5067473;28;20090;-44
2024/04/08 00:25:01;;;;;;;32.08;3.58;;;;;;;24.40;20.24;94569.31;5068662;28;20028;-44
2024/04/08 00:27:28;;;;;;;19.15;3.95;;;;;;;24.13;21.59;94575.13;5051669;28;20497;-44
2024/04/08 00:29:53;;;;;;;19.92;3.67;;;;;;;23.94;21.07;94583.78;5063218;28;20059;-44
2024/04/08 00:32:19;;;;;;;25.25;3.92;;;;;;;23.84;21.13;94583.03;5067727;28;20045;-44
2024/04/08 00:34:44;;;;;;;21.02;3.00;;;;;;;23.59;20.74;94582.13;5035116;28;20031;-44
2024/04/08 00:37:09;;;;;;;18.63;3.42;;;;;;;23.44;20.57;94585.66;5048506;28;20044;-46
2024/04/08 00:39:35;;;;;;;23.98;3.60;;;;;;;23.57;20.77;94592.22;5055798;28;20118;-44
2024/04/08 00:42:01;;;;;;;23.00;3.63;;;;;;;23.80;20.67;94596.09;5068223;28;20037;-45
2024/04/08 00:44:27;;;;;;;20.67;3.30;;;;;;;23.63;21.51;94591.13;5068625;28;20045;-45
2024/04/08 00:46:53;;;;;;;21.30;3.10;;;;;;;23.66;22.08;94587.13;5068639;28;20023;-46
2024/04/08 00:49:19;;;;;;;27.40;4.50;;;;;;;23.17;21.25;94575.44;5066029;28;20369;-47
2024/04/08 00:51:45;;;;;;;20.75;3.13;;;;;;;23.20;21.22;94593.47;5069496;28;20124;-45
2024/04/08 00:54:11;;;;;;;21.23;3.47;;;;;;;22.80;22.51;94592.53;5071320;28;20138;-47
2024/04/08 00:56:38;;;;;;;33.42;4.20;;;;;;;22.81;22.83;94602.06;5067630;28;20039;-44
2024/04/08 00:59:06;;;;;;;22.65;3.53;;;;;;;22.71;22.93;94594.13;5069921;28;20096;-45
2024/04/08 01:01:32;;;;;;;23.85;3.17;;;;;;;22.88;22.25;94585.88;5070609;28;20032;-44
2024/04/08 01:03:58;;;;;;;22.42;3.83;;;;;;;23.00;22.25;94584.50;5067591;28;20033;-44
2024/04/08 01:06:23;;;;;;;19.00;3.45;;;;;;;23.06;22.14;94585.31;5069427;28;20043;-47
2024/04/08 01:08:49;;;;;;;17.08;3.00;;;;;;;23.04;23.18;94587.44;5054984;28;20045;-43
2024/04/08 01:11:15;;;;;;;23.60;3.28;;;;;;;22.98;23.27;94567.25;5069783;28;20124;-44
2024/04/08 01:13:40;;;;;;;22.63;4.07;;;;;;;22.91;23.72;94580.03;5058881;28;20029;-44
2024/04/08 01:16:06;;;;;;;30.10;3.70;;;;;;;22.84;24.49;94578.44;5071136;28;20029;-44
2024/04/08 01:18:32;;;;;;;29.60;4.03;;;;;;;23.14;23.77;94565.38;5066563;28;20045;-44
2024/04/08 01:20:59;;;;;;;23.50;3.63;;;;;;;23.19;23.40;94552.09;5071389;28;20108;-46
2024/04/08 01:23:36;;;;;;;23.27;3.80;;;;;;;22.89;24.42;94569.69;5067209;28;20052;-44
2024/04/08 01:26:01;;;;;;;22.63;3.28;;;;;;;22.67;24.90;94570.00;5065954;28;20020;-43
2024/04/08 01:28:27;;;;;;;21.35;3.58;;;;;;;22.77;25.49;94555.94;5071235;28;20064;-45
2024/04/08 01:30:55;;;;;;;25.10;3.40;;;;;;;22.53;25.17;94561.84;5071766;28;20028;-45
2024/04/08 01:33:21;;;;;;;19.00;3.03;;;;;;;22.47;25.16;94557.63;5065458;28;20120;-44
2024/04/08 01:35:46;;;;;;;21.58;3.15;;;;;;;22.51;25.33;94561.31;5066458;28;20416;-44
2024/04/08 01:38:12;;;;;;;21.55;4.25;;;;;;;22.47;24.81;94547.00;5059253;28;20513;-44
2024/04/08 01:40:37;;;;;;;23.45;3.72;;;;;;;22.51;24.81;94547.28;5058893;28;20031;-45
2024/04/08 01:43:02;;;;;;;18.88;3.60;;;;;;;22.28;24.81;94533.53;5072190;28;20033;-44
2024/04/08 01:45:28;;;;;;;20.70;3.40;;;;;;;22.14;24.55;94546.50;5072443;28;20024;-44
2024/04/08 01:47:53;;;;;;;16.90;2.88;;;;;;;22.14;25.03;94543.06;5070318;28;20111;-45
2024/04/08 01:50:19;;;;;;;22.73;3.60;;;;;;;22.08;25.24;94554.72;5070950;28;20121;-45
2024/04/08 01:52:44;;;;;;;22.20;3.35;;;;;;;22.22;25.65;94545.19;5043771;28;20040;-50
2024/04/08 01:55:09;;;;;;;18.88;2.92;;;;;;;22.02;25.66;94535.38;5071193;28;20078;-46
2024/04/08 01:57:35;;;;;;;18.92;3.67;;;;;;;22.01;25.29;94526.66;5071698;28;20024;-45
2024/04/08 02:00:00;;;;;;;24.88;3.78;;;;;;;21.90;25.53;94526.94;5070357;28;20080;-45
2024/04/08 02:02:26;;;;;;;19.15;3.00;;;;;;;22.00;24.89;94529.56;5068585;28;20052;-48
2024/04/08 02:04:51;;;;;;;19.42;3.45;;;;;;;21.91;25.05;94529.28;5052914;28;20036;-45
2024/04/08 02:07:17;;;;;;;23.58;3.25;;;;;;;21.76;26.00;94537.22;5071743;28;20040;-48
2024/04/08 02:09:42;;;;;;;16.80;2.90;;;;;;;21.94;25.00;94525.34;5064416;28;20111;-49
2024/04/08 02:12:08;;;;;;;29.75;3.58;;;;;;;22.12;24.51;94530.06;5072692;28;20032;-46
2024/04/08 02:14:33;;;;;;;26.20;3.22;;;;;;;22.04;24.50;94526.09;5072353;28;20112;-50
2024/04/08 02:17:01;;;;;;;20.05;3.25;;;;;;;21.73;25.70;94522.69;5070512;28;20454;-50
2024/04/08 02:19:27;;;;;;;18.45;2.90;;;;;;;21.77;25.45;94522.97;5053832;28;20036;-44
2024/04/08 02:21:53;;;;;;;25.63;3.65;;;;;;;21.82;24.71;94515.81;5071969;28;20039;-48
2024/04/08 02:24:18;;;;;;;19.63;3.28;;;;;;;21.75;25.16;94520.56;5066348;28;20043;-50
2024/04/08 02:26:45;;;;;;;14.25;2.80;;;;;;;22.00;23.77;94518.97;5066515;28;20051;-47
2024/04/08 02:29:10;;;;;;;14.90;3.00;;;;;;;21.91;23.87;94491.44;5069863;28;20480;-46
2024/04/08 02:31:35;;;;;;;17.77;2.80;;;;;;;21.97;24.09;94498.31;5070850;28;20029;-48
2024/04/08 02:34:01;;;;;;;16.98;2.90;;;;;;;21.59;23.80;94492.50;5068546;28;20115;-47
2024/04/08 02:36:28;;;;;;;16.75;2.92;;;;;;;21.63;24.51;94485.66;5063889;28;20024;-47
2024/04/08 02:38:53;;;;;;;15.98;2.80;;;;;;;21.98;22.85;94478.72;5067227;28;20029;-49
2024/04/08 02:41:19;;;;;;;18.17;2.85;;;;;;;22.09;23.92;94490.13;5068083;28;20048;-49
2024/04/08 02:43:44;;;;;;;15.20;2.72;;;;;;;22.02;24.70;94488.50;5053714;28;20032;-48
2024/04/08 02:46:09;;;;;;;23.92;3.00;;;;;;;21.99;24.16;94478.47;5066514;28;20131;-47
2024/04/08 02:48:38;;;;;;;19.77;2.95;;;;;;;21.81;23.63;94490.38;5084826;28;20072;-50
2024/04/08 02:51:04;;;;;;;24.83;3.10;;;;;;;22.12;23.47;94487.69;5053734;28;20044;-48
2024/04/08 02:53:30;;;;;;;16.95;3.00;;;;;;;22.36;22.93;94484.50;5065586;28;20036;-48
2024/04/08 02:56:02;;;;;;;21.17;2.60;;;;;;;22.16;23.98;94483.47;5069698;28;20036;-50
2024/04/08 02:58:27;;;;;;;16.85;3.00;;;;;;;21.75;25.46;94491.44;5069993;28;20042;-48
2024/04/08 03:00:53;;;;;;;18.63;2.92;;;;;;;21.93;24.96;94490.09;5067825;28;20047;-44
2024/04/08 03:03:19;;;;;;;21.67;3.03;;;;;;;21.89;25.56;94485.63;5082087;28;20508;-47
2024/04/08 03:05:44;;;;;;;15.10;2.50;;;;;;;22.03;23.62;94474.22;5069612;28;20044;-45
2024/04/08 03:08:10;;;;;;;14.02;2.50;;;;;;;22.09;22.48;94471.56;5050774;28;20052;-47
2024/04/08 03:10:35;;;;;;;23.75;2.78;;;;;;;22.22;21.71;94476.31;5069722;28;20086;-45
2024/04/08 03:13:00;;;;;;;13.23;2.40;;;;;;;22.40;22.13;94474.97;5066418;28;20047;-46
2024/04/08 03:15:26;;;;;;;14.73;2.33;;;;;;;22.58;22.33;94478.84;5045536;28;20040;-45
2024/04/08 03:17:51;;;;;;;15.38;2.65;;;;;;;22.50;22.33;94472.25;5067504;28;20101;-47
2024/04/08 03:20:17;;;;;;;15.15;2.63;;;;;;;22.65;21.63;94482.03;5068552;28;20111;-48
2024/04/08 03:22:42;;;;;;;16.92;2.70;;;;;;;22.55;20.66;94469.59;5061747;28;20032;-49
2024/04/08 03:25:07;;;;;;;16.42;2.35;;;;;;;22.72;20.70;94473.78;5053138;28;20041;-44
2024/04/08 03:27:33;;;;;;;16.33;2.67;;;;;;;22.83;20.83;94485.94;5045737;28;20052;-48
2024/04/08 03:29:58;;;;;;;20.90;3.40;;;;;;;22.70;20.79;94473.28;5066016;28;20025;-48
2024/04/08 03:32:24;;;;;;;16.67;2.95;;;;;;;22.82;21.71;94487.00;5063955;28;20037;-46
2024/04/08 03:34:49;;;;;;;14.38;2.95;;;;;;;22.67;21.70;94489.72;5065293;28;20036;-44
2024/04/08 03:37:14;;;;;;;17.52;2.83;;;;;;;22.78;21.43;94493.91;5045080;28;20124;-44
2024/04/08 03:39:40;;;;;;;14.95;2.95;;;;;;;23.01;20.41;94495.13;5067193;28;20429;-44
2024/04/08 03:42:05;;;;;;;12.60;2.38;;;;;;;23.10;20.80;94503.34;5065442;28;20043;-44
2024/04/08 03:44:31;;;;;;;18.52;2.53;;;;;;;23.03;22.27;94507.06;5051039;28;20116;-45
2024/04/08 03:46:56;;;;;;;11.43;2.30;;;;;;;22.82;22.94;94535.50;5065388;28;20077;-44
2024/04/08 03:49:22;;;;;;;12.80;2.53;;;;;;;22.86;22.37;94530.44;5054235;28;20028;-44
2024/04/08 03:51:47;;;;;;;13.98;2.55;;;;;;;22.67;22.69;94524.94;5064006;28;20035;-45
2024/04/08 03:54:13;;;;;;;13.05;2.47;;;;;;;22.59;21.84;94528.94;5059503;28;20048;-46
2024/04/08 03:56:38;;;;;;;13.60;2.15;;;;;;;22.27;21.56;94537.25;5049027;28;20017;-44
2024/04/08 03:59:04;;;;;;;17.02;2.72;;;;;;;22.28;21.65;94543.34;5069332;28;20029;-48
2024/04/08 04:01:29;;;;;;;17.50;3.42;;;;;;;22.51;21.44;94555.22;5066280;28;20033;-47
2024/04/08 04:03:55;;;;;;;10.63;2.40;;;;;;;22.59;22.95;94552.81;5058407;28;20127;-48
2024/04/08 04:06:20;;;;;;;15.75;2.90;;;;;;;21.92;23.62;94561.88;5068390;28;20058;-46
2024/04/08 04:08:46;;;;;;;13.82;3.05;;;;;;;22.17;23.43;94564.50;5066089;28;20053;-47
2024/04/08 04:11:11;;;;;;;16.92;3.15;;;;;;;22.12;24.06;94558.41;5060860;28;20020;-46
2024/04/08 04:13:36;;;;;;;20.15;3.50;;;;;;;21.77;24.82;94567.94;5067641;28;20032;-44
2024/04/08 04:16:06;;;;;;;16.42;2.92;;;;;;;21.81;24.81;94567.16;5066481;28;20549;-44
2024/04/08 04:18:32;;;;;;;16.00;3.00;;;;;;;21.93;24.97;94574.03;5064241;28;20033;-44
2024/04/08 04:20:57;;;;;;;16.40;2.80;;;;;;;21.78;25.62;94582.75;5065128;28;20047;-46
2024/04/08 04:23:23;;;;;;;16.67;2.75;;;;;;;21.96;25.59;94578.81;5060427;28;20037;-45
2024/04/08 04:25:56;;;;;;;16.70;3.25;;;;;;;22.10;25.55;94573.78;5064536;28;20040;-48
2024/04/08 04:28:21;;;;;;;15.98;3.20;;;;;;;21.68;26.37;94580.91;5065984;28;20033;-44
2024/04/08 04:30:54;;;;;;;16.40;3.15;;;;;;;21.55;26.03;94584.06;5066550;28;20027;-44
2024/04/08 04:33:19;;;;;;;14.45;2.92;;;;;;;20.96;26.64;94571.94;5068418;28;20507;-45
2024/04/08 04:35:55;;;;;;;19.27;3.10;;;;;;;21.05;27.62;94579.13;5063250;28;20033;-44
2024/04/08 04:38:21;;;;;;;16.08;2.80;;;;;;;21.12;26.85;94570.19;5057492;28;20048;-47
2024/04/08 04:40:47;;;;;;;14.23;3.10;;;;;;;21.09;27.85;94568.81;5058183;28;20024;-44
2024/04/08 04:43:12;;;;;;;14.82;2.95;;;;;;;21.08;27.33;94569.91;5067714;28;20055;-44
2024/04/08 04:45:37;;;;;;;15.48;3.20;;;;;;;21.31;27.16;94575.78;5069448;28;20040;-44
2024/04/08 04:48:03;;;;;;;13.70;2.58;;;;;;;21.22;26.96;94576.28;5050240;28;20028;-44
2024/04/08 04:50:31;;;;;;;17.20;2.90;;;;;;;21.04;27.61;94572.25;5051662;28;20033;-44
2024/04/08 04:52:57;;;;;;;14.85;2.75;;;;;;;20.98;27.85;94581.22;5068122;28;20057;-44
2024/04/08 04:55:22;;;;;;;9.63;2.50;;;;;;;20.74;28.43;94580.06;5068096;28;20029;-44
2024/04/08 04:57:47;;;;;;;17.35;2.67;;;;;;;20.89;27.75;94580.13;5051889;28;20350;-44
2024/04/08 05:00:13;;;;;;;14.85;3.08;;;;;;;20.93;26.51;94585.69;5050267;28;20082;-44
2024/04/08 05:02:38;;;;;;;11.95;2.83;;;;;;;20.92;26.85;94589.38;5079984;28;20020;-44
2024/04/08 05:05:04;;;;;;;13.32;3.08;;;;;;;21.06;26.42;94588.66;5044037;28;20115;-44
2024/04/08 05:07:29;;;;;;;14.88;2.70;;;;;;;21.13;27.24;94595.53;5061730;28;20079;-44
2024/04/08 05:09:55;;;;;;;15.88;2.97;;;;;;;21.17;26.53;94599.25;5061581;28;20107;-45
2024/04/08 05:12:20;;;;;;;12.48;2.53;;;;;;;21.13;27.08;94598.19;5069604;28;20028;-46
2024/04/08 05:14:46;;;;;;;13.68;3.45;;;;;;;21.02;26.80;94598.16;5068031;28;20032;-46
2024/04/08 05:17:11;;;;;;;12.43;2.58;;;;;;;20.91;26.59;94596.53;5059504;28;20423;-45
2024/04/08 05:19:37;;;;;;;12.35;2.75;;;;;;;21.25;25.60;94610.16;5068426;28;20083;-45
2024/04/08 05:22:03;;;;;;;16.58;2.72;;;;;;;21.31;26.06;94600.38;5084030;28;20037;-43
2024/04/08 05:24:29;;;;;;;13.48;2.50;;;;;;;21.35;26.76;94601.44;5065649;28;20041;-46
2024/04/08 05:26:55;;;;;;;15.25;2.58;;;;;;;21.36;26.30;94607.53;5045014;28;20041;-44
2024/04/08 05:29:23;;;;;;;13.77;2.30;;;;;;;20.97;27.96;94610.56;5062949;28;20100;-45
2024/04/08 05:31:50;;;;;;;13.95;2.42;;;;;;;21.43;26.48;94606.22;5031213;28;20033;-45
2024/04/08 05:34:15;;;;;;;10.70;2.22;;;;;;;21.65;25.97;94615.84;5049434;28;20131;-44
2024/04/08 05:36:41;;;;;;;13.10;2.60;;;;;;;21.66;26.56;94612.13;5050733;28;20181;-47
2024/04/08 05:39:06;;;;;;;16.52;2.53;;;;;;;21.59;26.37;94619.50;5067356;28;20028;-44
2024/04/08 05:41:32;;;;;;;11.93;2.40;;;;;;;21.45;27.73;94620.00;5070374;28;20086;-45
2024/04/08 05:43:57;;;;;;;12.88;2.45;;;;;;;21.60;28.13;94624.56;5064804;28;20089;-46
2024/04/08 05:46:24;;;;;;;10.18;2.40;;;;;;;21.62;27.42;94619.78;5070183;28;20031;-44
2024/04/08 05:48:50;;;;;;;18.05;3.10;;;;;;;21.84;28.40;94614.28;5072362;28;20036;-47
2024/04/08 05:51:15;;;;;;;10.73;2.50;;;;;;;21.70;27.01;94621.13;5065355;28;20028;-45
2024/04/08 05:53:41;;;;;;;15.18;2.58;;;;;;;21.52;28.60;94606.56;5060104;28;20052;-45
2024/04/08 05:56:07;;;;;;;11.43;2.30;;;;;;;21.86;27.39;94604.22;5066118;28;20067;-44
2024/04/08 05:58:32;;;;;;;16.35;3.03;;;;;;;21.83;28.33;94606.59;5069491;28;20036;-47
2024/04/08 06:00:58;;;;;;;16.42;3.03;;;;;;;22.03;27.88;94595.25;5065846;28;20047;-44
2024/04/08 06:03:23;;;;;;;12.45;2.50;;;;;;;22.48;27.05;94608.75;5068785;28;20423;-46
2024/04/08 06:05:49;;;;;;;12.65;2.40;;;;;;;22.37;27.70;94598.19;5067292;28;20090;-45
2024/04/08 06:08:15;;;;;;;19.08;2.85;;;;;;;22.69;27.09;94589.09;5065523;28;20101;-47
2024/04/08 06:10:45;;;;;;;12.27;2.65;;;;;;;22.94;26.85;94596.19;5066805;28;20035;-45
2024/04/08 06:13:10;;;;;;;17.15;2.85;;;;;;;22.89;27.39;94590.13;5064483;28;20417;-47
2024/04/08 06:15:36;;;;;;;16.15;2.53;;;;;;;22.75;27.76;94589.88;5070383;28;20075;-47
2024/04/08 06:18:01;;;;;;;15.60;2.60;;;;;;;23.08;27.38;94577.09;5067505;28;20024;-48
2024/04/08 06:20:27;;;;;;;14.10;2.70;;;;;;;23.41;27.52;94567.63;5066812;28;20028;-47
2024/04/08 06:22:52;;;;;;;15.20;2.63;;;;;;;23.87;27.32;94567.34;5064875;28;20036;-45
2024/04/08 06:25:18;;;;;;;18.30;2.83;;;;;;;24.05;26.96;94573.88;5070237;28;20094;-49
2024/04/08 06:27:46;;;;;;;16.40;2.38;;;;;;;24.19;26.36;94566.81;5070899;28;20110;-46
2024/04/08 06:30:11;;;;;;;12.43;2.20;;;;;;;24.11;26.72;94567.44;5071995;28;20036;-50
2024/04/08 06:32:37;;;;;;;17.73;2.55;;;;;;;24.44;26.28;94565.00;5068627;28;20035;-50
2024/04/08 06:35:02;;;;;;;16.60;2.83;;;;;;;24.45;24.57;94561.28;5069639;28;20466;-47
2024/04/08 06:37:28;;;;;;;17.80;3.13;;;;;;;24.98;24.68;94552.50;5057942;28;20056;-48
2024/04/08 06:39:53;;;;;;;12.25;2.55;;;;;;;24.89;25.16;94552.34;5071419;28;20025;-45
2024/04/08 06:42:19;;;;;;;14.57;2.50;;;;;;;24.96;24.63;94544.03;5058579;28;20043;-46
2024/04/08 06:44:49;;;;;;;13.73;2.80;;;;;;;25.05;24.74;94536.97;5045842;28;20044;-46
2024/04/08 06:47:15;;;;;;;11.43;3.00;;;;;;;25.32;23.57;94528.41;5066308;28;20123;-48
2024/04/08 06:49:41;;;;;;;11.68;2.60;;;;;;;25.00;26.23;94525.59;5078961;28;20108;-48
2024/04/08 06:52:06;;;;;;;11.20;2.40;;;;;;;25.32;26.27;94528.41;5050030;28;20083;-49
2024/04/08 06:54:32;;;;;;;16.88;2.78;;;;;;;25.58;24.49;94528.03;5048006;28;20040;-45
2024/04/08 06:56:57;;;;;;;16.63;2.53;;;;;;;25.92;24.28;94521.69;5063412;28;20043;-50
2024/04/08 06:59:24;;;;;;;13.35;2.65;;;;;;;26.28;22.81;94523.78;5062965;28;20179;-44
2024/04/08 07:01:50;;;;;;;17.08;2.75;;;;;;;26.89;23.39;94511.19;5069385;28;20055;-44
2024/04/08 07:04:19;;;;;;;13.80;2.80;;;;;;;27.26;23.53;94520.03;5070931;28;20540;-44
2024/04/08 07:06:45;;;;;;;12.38;2.20;;;;;;;27.48;24.78;94521.97;5069376;28;20029;-47
2024/04/08 07:09:10;;;;;;;13.02;2.22;;;;;;;28.05;24.61;94516.91;5067375;28;20044;-44
2024/04/08 07:11:36;;;;;;;15.27;2.92;;;;;;;28.18;24.41;94522.47;5051445;28;20108;-44
2024/04/08 07:14:01;;;;;;;16.70;2.70;;;;;;;28.21;24.55;94506.63;5067806;28;20043;-44
2024/04/08 07:16:27;;;;;;;12.48;2.60;;;;;;;28.32;25.19;94512.50;5032531;28;20120;-46
2024/04/08 07:18:52;;;;;;;16.70;3.13;;;;;;;28.64;23.80;94511.41;5067471;28;20037;-45
2024/04/08 07:21:18;;;;;;;10.43;2.38;;;;;;;29.09;23.54;94505.06;5050629;28;20051;-44
2024/04/08 07:23:43;;;;;;;15.02;2.85;;;;;;;28.84;24.70;94496.69;5049789;28;20036;-44
2024/04/08 07:26:09;;;;;;;15.18;2.90;;;;;;;29.15;26.53;94495.84;5032677;28;20044;-45
2024/04/08 07:28:34;;;;;;;20.55;3.33;;;;;;;28.94;27.14;94497.50;5049593;28;20029;-44
2024/04/08 07:30:59;;;;;;;368.90;81.22;;;;;;;28.98;26.66;94507.28;5070111;28;20062;-44
2024/04/08 07:33:25;;;;;;;214.75;31.52;;;;;;;29.29;25.54;94494.91;5066579;28;20032;-44
2024/04/08 07:35:50;;;;;;;16.00;2.60;;;;;;;29.04;25.96;94494.53;5066747;28;20115;-44
2024/04/08 07:38:16;;;;;;;15.63;3.00;;;;;;;28.30;27.61;94493.31;5065735;28;20040;-44
2024/04/08 07:40:42;;;;;;;13.07;3.00;;;;;;;28.43;28.13;94507.69;5068472;28;20040;-44
2024/04/08 07:43:07;;;;;;;11.70;2.55;;;;;;;28.32;27.38;94501.03;5068035;28;20503;-49
2024/04/08 07:45:32;;;;;;;12.48;2.83;;;;;;;27.91;26.54;94494.81;5068408;28;20036;-45
2024/04/08 07:47:58;;;;;;;9.75;2.30;;;;;;;27.70;27.60;94505.16;5066040;28;20094;-45
2024/04/08 07:50:23;;;;;;;12.25;2.40;;;;;;;28.07;24.27;94487.22;5074825;28;20465;-44
2024/04/08 07:52:49;;;;;;;20.48;4.28;;;;;;;27.71;24.88;94492.63;5065076;28;20481;-46
2024/04/08 07:55:14;;;;;;;18.10;3.47;;;;;;;27.74;24.13;94486.66;5079392;28;20063;-45
2024/04/08 07:57:40;;;;;;;20.33;3.92;;;;;;;27.85;25.00;94514.72;5067522;28;20029;-45
2024/04/08 08:00:07;;;;;;;16.35;2.70;;;;;;;28.09;24.32;94514.44;5064360;28;20040;-46
2024/04/08 08:02:34;;;;;;;17.92;3.08;;;;;;;28.00;24.20;94501.00;5032024;28;20087;-44
2024/04/08 08:04:59;;;;;;;13.85;2.83;;;;;;;28.71;22.71;94502.97;5066245;28;20099;-46
2024/04/08 08:07:25;;;;;;;14.32;2.58;;;;;;;28.87;21.49;94500.63;5067981;28;20040;-44
2024/04/08 08:09:50;;;;;;;18.83;2.78;;;;;;;29.37;20.63;94494.91;5064912;28;20648;-44
2024/04/08 08:12:17;;;;;;;15.88;3.08;;;;;;;29.50;21.49;94498.53;5067430;28;20033;-44
2024/04/08 08:14:43;;;;;;;11.40;2.95;;;;;;;29.91;20.57;94499.97;5068623;28;20041;-45
2024/04/08 08:17:08;;;;;;;13.40;3.35;;;;;;;30.17;20.83;94493.75;5068619;28;20024;-47
2024/04/08 08:19:35;;;;;;;12.80;2.60;;;;;;;30.06;19.90;94497.88;5064880;28;20028;-44
2024/04/08 08:22:01;;;;;;;14.52;2.90;;;;;;;29.90;22.26;94498.38;5068522;28;20067;-45
2024/04/08 08:24:26;;;;;;;13.57;2.92;;;;;;;30.38;19.05;94507.28;5051475;28;20040;-44
2024/04/08 08:26:52;;;;;;;10.68;2.67;;;;;;;30.43;21.63;94507.13;5061833;28;20103;-44
2024/04/08 08:29:17;;;;;;;14.60;2.95;;;;;;;30.50;18.55;94498.56;5065025;28;20136;-45
2024/04/08 08:31:43;;;;;;;12.68;3.30;;;;;;;30.73;17.57;94481.13;5066157;28;20148;-45
2024/04/08 08:34:08;;;;;;;14.27;3.22;;;;;;;30.42;19.60;94488.66;5048842;28;20082;-44
2024/04/08 08:36:34;;;;;;;15.32;3.05;;;;;;;30.22;18.51;94477.50;5051540;28;20114;-45
2024/04/08 08:38:59;;;;;;;10.63;2.85;;;;;;;30.26;19.77;94477.66;5068044;28;20036;-44
2024/04/08 08:41:30;;;;;;;9.95;2.53;;;;;;;29.79;20.09;94481.84;5068932;28;20119;-44
2024/04/08 08:44:01;;;;;;;14.85;2.85;;;;;;;30.15;17.44;94482.56;5068391;28;20040;-44
2024/04/08 08:46:28;;;;;;;13.38;2.83;;;;;;;29.99;20.67;94485.75;5067052;28;20068;-44
2024/04/08 08:48:59;;;;;;;15.23;2.70;;;;;;;30.08;19.43;94476.91;5067078;28;20037;-44
2024/04/08 08:51:26;;;;;;;14.75;2.92;;;;;;;30.00;24.45;94486.53;5059167;28;20036;-44
2024/04/08 08:53:52;;;;;;;13.93;2.70;;;;;;;30.13;24.07;94474.06;5065999;28;20036;-44
2024/04/08 08:56:17;;;;;;;13.20;2.67;;;;;;;30.20;18.40;94475.13;5067166;28;20032;-44
2024/04/08 08:58:47;;;;;;;14.07;3.00;;;;;;;30.12;20.63;94485.88;5068087;28;20527;-44
2024/04/08 09:01:15;;;;;;;12.38;2.20;;;;;;;30.17;21.13;94469.63;5066062;28;20445;-44
2024/04/08 09:03:42;;;;;;;11.55;2.90;;;;;;;29.96;22.20;94472.97;5067803;28;20033;-44
2024/04/08 09:06:10;;;;;;;16.73;3.53;;;;;;;29.96;19.60;94469.53;5067029;28;20044;-45
2024/04/08 09:08:36;;;;;;;14.30;2.60;;;;;;;29.83;20.94;94460.53;5044753;28;20045;-44
2024/04/08 09:11:05;;;;;;;17.15;2.63;;;;;;;29.93;18.35;94459.41;5047704;28;20037;-45
2024/04/08 09:13:32;;;;;;;15.57;2.58;;;;;;;29.98;17.31;94459.25;5065285;28;20116;-44
2024/04/08 09:15:58;;;;;;;16.98;2.75;;;;;;;29.74;17.49;94467.81;5067975;28;20051;-44
2024/04/08 09:18:24;;;;;;;15.30;2.60;;;;;;;29.77;17.94;94464.50;5053433;28;20028;-47
2024/04/08 09:20:49;;;;;;;16.83;2.92;;;;;;;29.55;19.27;94444.81;5072749;28;20044;-45
2024/04/08 09:23:15;;;;;;;14.18;2.92;;;;;;;29.50;19.34;94450.31;5071209;28;20107;-46
2024/04/08 09:25:41;;;;;;;10.88;2.38;;;;;;;29.24;19.50;94453.81;5070833;28;20043;-45
2024/04/08 09:28:08;;;;;;;15.80;2.63;;;;;;;29.49;23.39;94461.34;5069664;28;20090;-45
2024/04/08 09:30:34;;;;;;;12.00;2.60;;;;;;;29.50;22.91;94453.00;5053935;28;20052;-45
2024/04/08 09:33:00;;;;;;;18.85;2.58;;;;;;;29.24;24.36;94450.31;5071180;28;20056;-49
2024/04/08 09:35:25;;;;;;;14.38;2.58;;;;;;;29.40;21.52;94456.00;5070934;28;20117;-45
2024/04/08 09:37:55;;;;;;;14.07;2.75;;;;;;;29.21;18.45;94457.09;5070723;28;20096;-46
2024/04/08 09:40:25;;;;;;;10.52;3.00;;;;;;;29.17;19.74;94448.13;5068952;28;20029;-50
2024/04/08 09:42:51;;;;;;;23.60;2.75;;;;;;;29.29;19.40;94452.84;5063632;28;20139;-45
2024/04/08 09:45:18;;;;;;;13.82;2.50;;;;;;;29.43;19.03;94442.78;5066534;28;20036;-45
2024/04/08 09:47:45;;;;;;;15.23;2.83;;;;;;;29.58;18.35;94444.16;5069858;28;20132;-45
2024/04/08 09:50:12;;;;;;;19.17;3.55;;;;;;;29.49;16.32;94440.69;5035310;28;20128;-46
2024/04/08 09:52:39;;;;;;;20.25;3.20;;;;;;;29.77;16.60;94443.84;5070174;28;20468;-46
2024/04/08 09:55:08;;;;;;;19.08;3.08;;;;;;;29.92;16.03;94441.78;5068802;28;20036;-45
2024/04/08 09:57:39;;;;;;;21.85;2.75;;;;;;;29.80;15.26;94440.53;5050237;28;20033;-45
2024/04/08 10:00:12;;;;;;;18.60;3.30;;;;;;;29.99;14.34;94440.19;5068697;28;20075;-44
2024/04/08 10:02:41;;;;;;;14.40;2.75;;;;;;;29.58;13.17;94429.97;5083084;28;20035;-46
2024/04/08 10:05:07;;;;;;;19.77;2.77;;;;;;;29.10;15.65;94429.03;5067087;28;20051;-45
2024/04/08 10:07:34;;;;;;;15.65;2.60;;;;;;;29.45;15.22;94423.69;5068935;28;20052;-44
2024/04/08 10:10:09;;;;;;;17.40;2.60;;;;;;;29.51;13.25;94421.63;5069850;28;20043;-45
2024/04/08 10:12:36;;;;;;;17.73;3.35;;;;;;;29.33;14.40;94431.56;5067768;28;20374;-47
2024/04/08 10:15:31;;;;;;;18.98;3.30;;;;;;;28.93;13.56;94410.28;5067241;28;20365;-48
2024/04/08 10:17:57;;;;;;;19.60;3.50;;;;;;;29.00;13.81;94422.09;5066115;28;20041;-44
2024/04/08 10:20:23;;;;;;;19.08;3.10;;;;;;;29.34;15.41;94406.34;5070257;28;20439;-46
2024/04/08 10:22:49;;;;;;;17.58;3.05;;;;;;;29.32;14.40;94408.56;5071267;28;20033;-44
2024/04/08 10:25:34;;;;;;;23.05;3.33;;;;;;;29.64;14.23;94404.59;5052911;28;20497;-45
2024/04/08 10:28:04;;;;;;;19.02;3.08;;;;;;;29.97;13.36;94407.53;5069918;28;20029;-45
2024/04/08 10:30:32;;;;;;;23.27;3.05;;;;;;;30.09;13.73;94406.88;5080379;28;20062;-44
2024/04/08 10:32:57;;;;;;;21.00;3.50;;;;;;;30.16;12.83;94406.38;5068589;28;20033;-46
2024/04/08 10:35:23;;;;;;;16.95;3.35;;;;;;;29.95;12.58;94401.72;5049745;28;20037;-47
2024/04/08 10:37:50;;;;;;;18.15;3.10;;;;;;;29.47;12.40;94386.63;5066819;28;20127;-47
2024/04/08 10:40:15;;;;;;;25.88;3.47;;;;;;;29.38;14.09;94392.03;5065135;28;20032;-49
2024/04/08 10:42:40;;;;;;;20.85;3.35;;;;;;;29.62;14.82;94402.25;5065595;28;20454;-47
2024/04/08 10:45:06;;;;;;;21.17;4.70;;;;;;;29.66;12.60;94404.28;5068256;28;20107;-47
2024/04/08 10:47:32;;;;;;;20.38;3.50;;;;;;;29.90;13.09;94391.16;5052121;28;20075;-47
2024/04/08 10:49:58;;;;;;;27.67;4.25;;;;;;;30.04;14.98;94387.47;5064230;28;20028;-50
2024/04/08 10:52:23;;;;;;;16.50;3.40;;;;;;;30.07;12.86;94394.91;5069521;28;20032;-48
2024/04/08 10:54:49;;;;;;;21.85;3.42;;;;;;;29.72;12.40;94384.22;5069062;28;20070;-48
2024/04/08 10:57:14;;;;;;;19.38;3.38;;;;;;;29.63;14.10;94393.09;5064193;28;20036;-47
2024/04/08 10:59:39;;;;;;;17.20;3.15;;;;;;;29.55;12.82;94387.72;5066560;28;20036;-47
2024/04/08 11:02:14;;;;;;;21.90;3.33;;;;;;;29.68;13.39;94380.63;5068528;28;20105;-48
2024/04/08 11:04:39;;;;;;;18.50;3.38;;;;;;;30.01;15.85;94387.00;5062971;28;20120;-47
2024/04/08 11:07:05;;;;;;;27.17;3.50;;;;;;;30.18;11.93;94372.75;5063315;28;20155;-50
2024/04/08 11:09:30;;;;;;;16.60;2.78;;;;;;;30.38;14.76;94379.31;5063904;28;20382;-47
2024/04/08 11:11:56;;;;;;;22.65;3.08;;;;;;;30.45;14.57;94372.66;5050845;28;20084;-46
2024/04/08 11:14:21;;;;;;;22.88;3.65;;;;;;;30.53;14.93;94382.56;5068940;28;20179;-48
2024/04/08 11:16:47;;;;;;;21.63;3.40;;;;;;;31.06;15.27;94369.59;5052490;28;20051;-47
2024/04/08 11:19:12;;;;;;;17.08;3.10;;;;;;;31.33;14.43;94369.03;5061230;28;20033;-47